createdAt,value
2022-11-30T00:00:03.417Z,5.40
2022-11-30T00:01:03.301Z,5.40
2022-11-30T00:02:03.314Z,5.40
2022-11-30T00:03:03.327Z,5.40
2022-11-30T00:04:03.194Z,5.40
2022-11-30T00:05:03.230Z,5.40
2022-11-30T00:06:03.058Z,5.40
2022-11-30T00:07:03.011Z,5.40
2022-11-30T00:08:02.989Z,5.40
2022-11-30T00:09:02.766Z,5.30
2022-11-30T00:10:02.768Z,5.30
2022-11-30T00:11:02.612Z,5.30
2022-11-30T00:12:03.551Z,5.30
2022-11-30T00:13:03.547Z,5.30
2022-11-30T00:14:03.502Z,5.30
2022-11-30T00:15:03.400Z,5.30
2022-11-30T00:16:03.300Z,5.30
2022-11-30T00:17:03.434Z,5.30
2022-11-30T00:18:03.227Z,5.30
2022-11-30T00:19:03.234Z,5.30
2022-11-30T00:20:03.225Z,5.30
2022-11-30T00:21:03.222Z,5.20
2022-11-30T00:22:03.085Z,5.30
2022-11-30T00:23:03.094Z,5.20
2022-11-30T00:24:03.000Z,5.20
2022-11-30T00:25:02.843Z,5.20
2022-11-30T00:26:02.887Z,5.20
2022-11-30T00:27:02.841Z,5.20
2022-11-30T00:28:02.710Z,5.20
2022-11-30T00:29:02.742Z,5.20
2022-11-30T00:30:02.705Z,5.20
2022-11-30T00:31:02.643Z,5.10
2022-11-30T00:32:02.686Z,5.20
2022-11-30T00:33:03.569Z,5.20
2022-11-30T00:34:03.458Z,5.10
2022-11-30T00:35:03.413Z,5.20
2022-11-30T00:36:03.368Z,5.10
2022-11-30T00:37:03.312Z,5.20
2022-11-30T00:38:03.407Z,5.10
2022-11-30T00:39:03.444Z,5.10
2022-11-30T00:40:03.272Z,5.10
2022-11-30T00:41:03.326Z,5.10
2022-11-30T00:42:03.236Z,5.10
2022-11-30T00:43:03.330Z,5.10
2022-11-30T00:44:03.343Z,5.10
2022-11-30T00:45:03.431Z,5.10
2022-11-30T00:46:03.332Z,5.10
2022-11-30T00:47:03.248Z,5.10
2022-11-30T00:48:03.303Z,5.10
2022-11-30T00:49:03.210Z,5.10
2022-11-30T00:50:03.140Z,5.10
2022-11-30T00:51:03.151Z,5.10
2022-11-30T00:52:03.051Z,5.10
2022-11-30T00:53:03.118Z,5.10
2022-11-30T00:54:02.978Z,5.10
2022-11-30T00:55:04.175Z,5.10
2022-11-30T00:56:02.843Z,5.10
2022-11-30T00:57:02.939Z,5.10
2022-11-30T00:58:02.806Z,5.10
2022-11-30T00:59:03.176Z,5.10
2022-11-30T01:00:03.084Z,5.10
2022-11-30T01:01:02.959Z,5.10
2022-11-30T01:02:02.919Z,5.10
2022-11-30T01:03:02.942Z,5.10
2022-11-30T01:04:02.759Z,5.10
2022-11-30T01:05:02.846Z,5.10
2022-11-30T01:06:02.742Z,5.00
2022-11-30T01:07:02.615Z,5.10
2022-11-30T01:08:03.646Z,5.10
2022-11-30T01:09:03.484Z,5.10
2022-11-30T01:10:03.551Z,5.10
2022-11-30T01:11:03.492Z,5.00
2022-11-30T01:12:03.604Z,5.00
2022-11-30T01:13:03.502Z,5.00
2022-11-30T01:14:03.494Z,5.00
2022-11-30T01:15:03.438Z,5.00
2022-11-30T01:16:03.445Z,5.00
2022-11-30T01:17:03.403Z,5.00
2022-11-30T01:18:03.490Z,5.00
2022-11-30T01:19:03.443Z,5.00
2022-11-30T01:20:03.370Z,5.00
2022-11-30T01:21:03.301Z,5.00
2022-11-30T01:22:03.255Z,5.00
2022-11-30T01:23:03.162Z,5.00
2022-11-30T01:24:03.115Z,5.00
2022-11-30T01:25:03.099Z,5.00
2022-11-30T01:26:02.978Z,5.00
2022-11-30T01:27:02.957Z,5.00
2022-11-30T01:28:02.808Z,5.00
2022-11-30T01:29:02.932Z,5.00
2022-11-30T01:30:02.802Z,5.00
2022-11-30T01:31:02.723Z,5.00
2022-11-30T01:32:02.631Z,5.00
2022-11-30T01:33:02.706Z,5.00
2022-11-30T01:34:03.639Z,5.00
2022-11-30T01:35:03.458Z,5.00
2022-11-30T01:36:03.567Z,5.00
2022-11-30T01:37:03.494Z,5.00
2022-11-30T01:38:03.410Z,5.00
2022-11-30T01:39:03.525Z,5.00
2022-11-30T01:40:03.411Z,5.00
2022-11-30T01:41:03.334Z,5.00
2022-11-30T01:42:03.318Z,5.00
2022-11-30T01:43:03.173Z,5.00
2022-11-30T01:44:03.406Z,5.00
2022-11-30T01:45:03.226Z,5.00
2022-11-30T01:46:03.241Z,5.00
2022-11-30T01:47:03.175Z,5.00
2022-11-30T01:48:03.120Z,5.00
2022-11-30T01:49:03.215Z,5.00
2022-11-30T01:50:03.054Z,5.00
2022-11-30T01:51:02.996Z,5.00
2022-11-30T01:52:02.857Z,5.00
2022-11-30T01:53:02.850Z,5.00
2022-11-30T01:54:02.852Z,5.00
2022-11-30T01:55:02.759Z,5.00
2022-11-30T01:56:02.584Z,5.00
2022-11-30T01:57:02.680Z,5.00
2022-11-30T01:58:03.588Z,5.00
2022-11-30T01:59:03.573Z,5.00
2022-11-30T02:00:03.502Z,5.00
2022-11-30T02:01:03.393Z,5.00
2022-11-30T02:02:03.293Z,5.00
2022-11-30T02:03:03.348Z,5.00
2022-11-30T02:04:03.286Z,5.00
2022-11-30T02:05:03.195Z,5.00
2022-11-30T02:06:03.164Z,5.00
2022-11-30T02:07:03.150Z,5.00
2022-11-30T02:08:03.167Z,5.00
2022-11-30T02:09:03.080Z,5.00
2022-11-30T02:10:02.897Z,5.00
2022-11-30T02:11:02.819Z,5.00
2022-11-30T02:12:02.787Z,5.00
2022-11-30T02:13:02.707Z,5.00
2022-11-30T02:14:02.679Z,5.00
2022-11-30T02:15:03.479Z,5.00
2022-11-30T02:16:03.605Z,5.00
2022-11-30T02:17:03.482Z,5.00
2022-11-30T02:18:03.484Z,5.00
2022-11-30T02:19:03.476Z,5.00
2022-11-30T02:20:03.391Z,4.90
2022-11-30T02:21:03.323Z,4.90
2022-11-30T02:22:03.317Z,4.90
2022-11-30T02:23:03.286Z,4.90
2022-11-30T02:24:03.272Z,4.90
2022-11-30T02:25:03.283Z,4.90
2022-11-30T02:26:03.217Z,4.90
2022-11-30T02:27:03.165Z,4.90
2022-11-30T02:28:03.131Z,4.90
2022-11-30T02:29:03.114Z,4.90
2022-11-30T02:30:03.115Z,5.00
2022-11-30T02:31:02.954Z,4.90
2022-11-30T02:32:02.853Z,4.90
2022-11-30T02:33:02.815Z,4.90
2022-11-30T02:34:02.747Z,4.90
2022-11-30T02:35:02.648Z,4.90
2022-11-30T02:36:03.553Z,4.90
2022-11-30T02:37:03.514Z,4.90
2022-11-30T02:38:03.371Z,4.90
2022-11-30T02:39:03.296Z,4.90
2022-11-30T02:40:03.269Z,4.90
2022-11-30T02:41:03.228Z,4.90
2022-11-30T02:42:03.074Z,4.90
2022-11-30T02:43:02.983Z,4.90
2022-11-30T02:44:03.073Z,4.90
2022-11-30T02:45:03.030Z,4.90
2022-11-30T02:46:03.083Z,4.90
2022-11-30T02:47:02.987Z,4.90
2022-11-30T02:48:03.000Z,4.90
2022-11-30T02:49:02.968Z,4.90
2022-11-30T02:50:02.877Z,4.80
2022-11-30T02:51:02.803Z,4.90
2022-11-30T02:52:02.762Z,4.90
2022-11-30T02:53:02.753Z,4.80
2022-11-30T02:54:02.776Z,4.90
2022-11-30T02:55:02.759Z,4.90
2022-11-30T02:56:03.539Z,4.80
2022-11-30T02:57:03.716Z,4.80
2022-11-30T02:58:03.503Z,4.90
2022-11-30T02:59:03.450Z,4.80
2022-11-30T03:00:03.467Z,4.90
2022-11-30T03:01:03.336Z,4.80
2022-11-30T03:02:03.573Z,4.80
2022-11-30T03:03:02.984Z,4.80
2022-11-30T03:04:02.833Z,4.80
2022-11-30T03:05:02.857Z,4.80
2022-11-30T03:06:02.727Z,4.80
2022-11-30T03:07:02.660Z,4.80
2022-11-30T03:08:03.515Z,4.80
2022-11-30T03:09:02.672Z,4.80
2022-11-30T03:10:02.642Z,4.80
2022-11-30T03:11:03.556Z,4.80
2022-11-30T03:12:03.549Z,4.80
2022-11-30T03:13:03.620Z,4.80
2022-11-30T03:14:02.682Z,4.80
2022-11-30T03:15:03.554Z,4.80
2022-11-30T03:16:03.627Z,4.70
2022-11-30T03:17:03.432Z,4.80
2022-11-30T03:18:03.490Z,4.80
2022-11-30T03:19:03.437Z,4.80
2022-11-30T03:20:03.412Z,4.70
2022-11-30T03:21:03.249Z,4.80
2022-11-30T03:22:03.229Z,4.80
2022-11-30T03:23:03.193Z,4.70
2022-11-30T03:24:03.101Z,4.70
2022-11-30T03:25:03.027Z,4.70
2022-11-30T03:26:03.063Z,4.70
2022-11-30T03:27:02.955Z,4.70
2022-11-30T03:28:02.842Z,4.70
2022-11-30T03:29:02.726Z,4.70
2022-11-30T03:30:02.629Z,4.70
2022-11-30T03:31:03.556Z,4.70
2022-11-30T03:32:03.519Z,4.70
2022-11-30T03:33:03.432Z,4.70
2022-11-30T03:34:03.343Z,4.70
2022-11-30T03:35:03.331Z,4.70
2022-11-30T03:36:03.301Z,4.70
2022-11-30T03:37:03.127Z,4.70
2022-11-30T03:38:03.167Z,4.70
2022-11-30T03:39:03.010Z,4.70
2022-11-30T03:40:03.327Z,4.70
2022-11-30T03:41:03.343Z,4.70
2022-11-30T03:42:03.207Z,4.70
2022-11-30T03:43:03.070Z,4.70
2022-11-30T03:44:03.145Z,4.70
2022-11-30T03:45:03.067Z,4.70
2022-11-30T03:46:03.030Z,4.70
2022-11-30T03:47:02.856Z,4.70
2022-11-30T03:48:02.897Z,4.70
2022-11-30T03:49:02.735Z,4.70
2022-11-30T03:50:02.620Z,4.70
2022-11-30T03:51:02.858Z,4.70
2022-11-30T03:52:02.640Z,4.70
2022-11-30T03:53:03.583Z,4.70
2022-11-30T03:54:02.711Z,4.70
2022-11-30T03:55:02.605Z,4.70
2022-11-30T03:56:03.611Z,4.70
2022-11-30T03:57:03.449Z,4.70
2022-11-30T03:58:03.471Z,4.70
2022-11-30T03:59:03.360Z,4.70
2022-11-30T04:00:03.396Z,4.70
2022-11-30T04:01:03.307Z,4.70
2022-11-30T04:02:03.136Z,4.70
2022-11-30T04:03:03.118Z,4.70
2022-11-30T04:04:02.941Z,4.70
2022-11-30T04:05:03.023Z,4.70
2022-11-30T04:06:02.957Z,4.70
2022-11-30T04:07:02.941Z,4.60
2022-11-30T04:08:02.823Z,4.60
2022-11-30T04:09:02.720Z,4.60
2022-11-30T04:10:06.943Z,4.60
2022-11-30T04:11:02.637Z,4.60
2022-11-30T04:12:02.560Z,4.60
2022-11-30T04:13:03.597Z,4.60
2022-11-30T04:14:03.442Z,4.60
2022-11-30T04:15:03.480Z,4.60
2022-11-30T04:16:03.654Z,4.60
2022-11-30T04:17:03.438Z,4.60
2022-11-30T04:18:03.313Z,4.60
2022-11-30T04:19:03.349Z,4.60
2022-11-30T04:20:03.434Z,4.60
2022-11-30T04:21:03.326Z,4.60
2022-11-30T04:22:03.354Z,4.60
2022-11-30T04:23:03.171Z,4.60
2022-11-30T04:24:03.127Z,4.60
2022-11-30T04:25:03.079Z,4.60
2022-11-30T04:26:03.186Z,4.60
2022-11-30T04:27:03.022Z,4.60
2022-11-30T04:28:03.019Z,4.60
2022-11-30T04:29:04.577Z,4.60
2022-11-30T04:30:02.996Z,4.60
2022-11-30T04:31:03.147Z,4.60
2022-11-30T04:32:02.805Z,4.60
2022-11-30T04:33:02.673Z,4.60
2022-11-30T04:34:02.741Z,4.60
2022-11-30T04:35:02.729Z,4.60
2022-11-30T04:36:03.573Z,4.60
2022-11-30T04:37:02.580Z,4.60
2022-11-30T04:38:02.891Z,4.60
2022-11-30T04:39:02.742Z,4.60
2022-11-30T04:40:02.705Z,4.60
2022-11-30T04:41:02.768Z,4.60
2022-11-30T04:42:02.639Z,4.60
2022-11-30T04:43:03.538Z,4.60
2022-11-30T04:44:03.541Z,4.60
2022-11-30T04:45:03.380Z,4.60
2022-11-30T04:46:03.357Z,4.60
2022-11-30T04:47:03.371Z,4.60
2022-11-30T04:48:03.233Z,4.60
2022-11-30T04:49:03.087Z,4.60
2022-11-30T04:50:03.026Z,4.50
2022-11-30T04:51:03.028Z,4.60
2022-11-30T04:52:02.959Z,4.60
2022-11-30T04:53:02.971Z,4.60
2022-11-30T04:54:02.913Z,4.60
2022-11-30T04:55:02.747Z,4.60
2022-11-30T04:56:02.834Z,4.60
2022-11-30T04:57:02.727Z,4.60
2022-11-30T04:58:02.578Z,4.60
2022-11-30T04:59:03.474Z,4.60
2022-11-30T05:00:03.465Z,4.60
2022-11-30T05:01:03.491Z,4.60
2022-11-30T05:02:03.643Z,4.60
2022-11-30T05:03:03.511Z,4.50
2022-11-30T05:04:03.496Z,4.50
2022-11-30T05:05:03.271Z,4.50
2022-11-30T05:06:03.294Z,4.50
2022-11-30T05:07:03.213Z,4.50
2022-11-30T05:08:03.203Z,4.50
2022-11-30T05:09:03.063Z,4.50
2022-11-30T05:10:03.029Z,4.50
2022-11-30T05:11:02.960Z,4.50
2022-11-30T05:12:02.962Z,4.50
2022-11-30T05:13:02.868Z,4.50
2022-11-30T05:14:02.773Z,4.50
2022-11-30T05:15:02.783Z,4.50
2022-11-30T05:16:02.779Z,4.50
2022-11-30T05:17:02.667Z,4.50
2022-11-30T05:18:03.559Z,4.50
2022-11-30T05:19:03.577Z,4.50
2022-11-30T05:20:03.367Z,4.50
2022-11-30T05:21:03.357Z,4.50
2022-11-30T05:22:03.448Z,4.50
2022-11-30T05:23:03.347Z,4.50
2022-11-30T05:24:03.179Z,4.50
2022-11-30T05:25:03.616Z,4.40
2022-11-30T05:26:03.205Z,4.40
2022-11-30T05:27:05.457Z,4.40
2022-11-30T05:28:03.070Z,4.40
2022-11-30T05:29:02.994Z,4.40
2022-11-30T05:30:03.022Z,4.40
2022-11-30T05:31:03.129Z,4.40
2022-11-30T05:32:03.099Z,4.40
2022-11-30T05:33:02.880Z,4.40
2022-11-30T05:34:02.983Z,4.40
2022-11-30T05:35:02.865Z,4.40
2022-11-30T05:36:07.262Z,4.40
2022-11-30T05:37:02.749Z,4.40
2022-11-30T05:38:02.650Z,4.40
2022-11-30T05:39:02.590Z,4.40
2022-11-30T05:40:03.543Z,4.40
2022-11-30T05:41:03.603Z,4.40
2022-11-30T05:42:03.635Z,4.40
2022-11-30T05:43:03.482Z,4.40
2022-11-30T05:44:03.515Z,4.40
2022-11-30T05:45:03.482Z,4.40
2022-11-30T05:46:03.447Z,4.40
2022-11-30T05:47:03.557Z,4.40
2022-11-30T05:48:03.492Z,4.40
2022-11-30T05:49:03.560Z,4.40
2022-11-30T05:50:03.491Z,4.40
2022-11-30T05:51:03.543Z,4.40
2022-11-30T05:52:03.505Z,4.40
2022-11-30T05:53:03.299Z,4.40
2022-11-30T05:54:03.222Z,4.40
2022-11-30T05:55:03.126Z,4.40
2022-11-30T05:56:03.038Z,4.40
2022-11-30T05:57:03.174Z,4.40
2022-11-30T05:58:02.983Z,4.40
2022-11-30T05:59:02.899Z,4.40
2022-11-30T06:00:02.938Z,4.40
2022-11-30T06:01:02.799Z,4.40
2022-11-30T06:02:02.923Z,4.40
2022-11-30T06:03:02.746Z,4.40
2022-11-30T06:04:07.458Z,4.40
2022-11-30T06:05:03.512Z,4.40
2022-11-30T06:06:03.537Z,4.40
2022-11-30T06:07:03.437Z,4.40
2022-11-30T06:08:03.472Z,4.40
2022-11-30T06:09:03.369Z,4.40
2022-11-30T06:10:03.264Z,4.40
2022-11-30T06:11:03.315Z,4.40
2022-11-30T06:12:03.194Z,4.40
2022-11-30T06:13:03.058Z,4.40
2022-11-30T06:14:03.036Z,4.40
2022-11-30T06:15:02.908Z,4.40
2022-11-30T06:16:02.918Z,4.40
2022-11-30T06:17:02.854Z,4.40
2022-11-30T06:18:02.895Z,4.40
2022-11-30T06:19:02.762Z,4.40
2022-11-30T06:20:03.258Z,4.40
2022-11-30T06:21:03.117Z,4.40
2022-11-30T06:22:03.056Z,4.40
2022-11-30T06:23:02.910Z,4.40
2022-11-30T06:24:02.876Z,4.40
2022-11-30T06:25:02.740Z,4.40
2022-11-30T06:26:02.706Z,4.40
2022-11-30T06:27:02.730Z,4.40
2022-11-30T06:28:03.551Z,4.40
2022-11-30T06:29:03.532Z,4.30
2022-11-30T06:30:03.361Z,4.30
2022-11-30T06:31:03.432Z,4.30
2022-11-30T06:32:03.475Z,4.30
2022-11-30T06:33:03.265Z,4.30
2022-11-30T06:34:03.120Z,4.30
2022-11-30T06:35:03.120Z,4.30
2022-11-30T06:36:03.110Z,4.30
2022-11-30T06:37:02.996Z,4.30
2022-11-30T06:38:03.008Z,4.30
2022-11-30T06:39:02.975Z,4.30
2022-11-30T06:40:07.491Z,4.30
2022-11-30T06:41:02.895Z,4.30
2022-11-30T06:42:02.976Z,4.30
2022-11-30T06:43:02.800Z,4.30
2022-11-30T06:44:02.708Z,4.30
2022-11-30T06:45:02.650Z,4.30
2022-11-30T06:46:03.736Z,4.30
2022-11-30T06:47:03.487Z,4.30
2022-11-30T06:48:03.436Z,4.30
2022-11-30T06:49:03.402Z,4.30
2022-11-30T06:50:03.263Z,4.30
2022-11-30T06:51:03.279Z,4.30
2022-11-30T06:52:03.152Z,4.30
2022-11-30T06:53:03.159Z,4.20
2022-11-30T06:54:03.100Z,4.20
2022-11-30T06:55:02.939Z,4.20
2022-11-30T06:56:06.626Z,4.20
2022-11-30T06:57:02.825Z,4.30
2022-11-30T06:58:02.912Z,4.30
2022-11-30T06:59:02.713Z,4.20
2022-11-30T07:00:02.675Z,4.20
2022-11-30T07:01:02.746Z,4.20
2022-11-30T07:02:07.614Z,4.20
2022-11-30T07:03:03.638Z,4.20
2022-11-30T07:04:02.656Z,4.20
2022-11-30T07:05:03.526Z,4.20
2022-11-30T07:06:03.478Z,4.20
2022-11-30T07:07:03.382Z,4.30
2022-11-30T07:08:03.270Z,4.30
2022-11-30T07:09:03.288Z,4.30
2022-11-30T07:10:03.273Z,4.30
2022-11-30T07:11:03.160Z,4.30
2022-11-30T07:12:03.205Z,4.30
2022-11-30T07:13:03.140Z,4.30
2022-11-30T07:14:03.248Z,4.30
2022-11-30T07:15:03.048Z,4.30
2022-11-30T07:16:02.908Z,4.30
2022-11-30T07:17:02.952Z,4.30
2022-11-30T07:18:02.991Z,4.30
2022-11-30T07:19:02.798Z,4.30
2022-11-30T07:20:02.772Z,4.30
2022-11-30T07:21:02.718Z,4.30
2022-11-30T07:22:02.639Z,4.30
2022-11-30T07:23:02.824Z,4.30
2022-11-30T07:24:02.730Z,4.30
2022-11-30T07:25:02.696Z,4.30
2022-11-30T07:26:03.583Z,4.30
2022-11-30T07:27:03.575Z,4.30
2022-11-30T07:28:03.490Z,4.30
2022-11-30T07:29:03.415Z,4.30
2022-11-30T07:30:03.473Z,4.30
2022-11-30T07:31:03.391Z,4.30
2022-11-30T07:32:03.448Z,4.30
2022-11-30T07:33:03.327Z,4.40
2022-11-30T07:34:03.386Z,4.40
2022-11-30T07:35:03.396Z,4.40
2022-11-30T07:36:03.360Z,4.40
2022-11-30T07:37:03.212Z,4.40
2022-11-30T07:38:06.766Z,4.40
2022-11-30T07:39:03.018Z,4.40
2022-11-30T07:40:03.042Z,4.40
2022-11-30T07:41:02.903Z,4.40
2022-11-30T07:42:02.891Z,4.40
2022-11-30T07:43:02.923Z,4.40
2022-11-30T07:44:02.718Z,4.40
2022-11-30T07:45:02.690Z,4.40
2022-11-30T07:46:02.858Z,4.40
2022-11-30T07:47:02.679Z,4.40
2022-11-30T07:48:03.621Z,4.40
2022-11-30T07:49:03.499Z,4.40
2022-11-30T07:50:03.391Z,4.40
2022-11-30T07:51:03.245Z,4.40
2022-11-30T07:52:03.155Z,4.40
2022-11-30T07:53:03.170Z,4.40
2022-11-30T07:54:03.047Z,4.40
2022-11-30T07:55:02.970Z,4.40
2022-11-30T07:56:02.896Z,4.40
2022-11-30T07:57:02.762Z,4.40
2022-11-30T07:58:02.848Z,4.40
2022-11-30T07:59:02.760Z,4.40
2022-11-30T08:00:02.667Z,4.40
2022-11-30T08:01:03.684Z,4.40
2022-11-30T08:02:03.477Z,4.50
2022-11-30T08:03:03.488Z,4.50
2022-11-30T08:04:03.532Z,4.50
2022-11-30T08:05:03.341Z,4.50
2022-11-30T08:06:03.255Z,4.50
2022-11-30T08:07:03.204Z,4.50
2022-11-30T08:08:03.297Z,4.50
2022-11-30T08:09:03.183Z,4.50
2022-11-30T08:10:03.153Z,4.50
2022-11-30T08:11:02.996Z,4.50
2022-11-30T08:12:02.962Z,4.50
2022-11-30T08:13:03.059Z,4.60
2022-11-30T08:14:02.876Z,4.60
2022-11-30T08:15:20.105Z,4.60
2022-11-30T08:16:02.734Z,4.60
2022-11-30T08:17:02.629Z,4.60
2022-11-30T08:18:03.629Z,4.60
2022-11-30T08:19:03.512Z,4.60
2022-11-30T08:20:03.547Z,4.60
2022-11-30T08:21:03.595Z,4.60
2022-11-30T08:22:03.378Z,4.60
2022-11-30T08:23:03.234Z,4.60
2022-11-30T08:24:03.417Z,4.60
2022-11-30T08:25:03.267Z,4.60
2022-11-30T08:26:03.043Z,4.60
2022-11-30T08:27:02.962Z,4.60
2022-11-30T08:28:03.024Z,4.60
2022-11-30T08:29:02.826Z,4.70
2022-11-30T08:30:02.763Z,4.70
2022-11-30T08:31:02.734Z,4.70
2022-11-30T08:32:02.577Z,4.70
2022-11-30T08:33:03.566Z,4.70
2022-11-30T08:34:03.414Z,4.70
2022-11-30T08:35:03.457Z,4.70
2022-11-30T08:36:03.324Z,4.70
2022-11-30T08:37:03.328Z,4.70
2022-11-30T08:38:03.219Z,4.70
2022-11-30T08:39:03.081Z,4.70
2022-11-30T08:40:03.010Z,4.70
2022-11-30T08:41:02.959Z,4.70
2022-11-30T08:42:02.897Z,4.70
2022-11-30T08:43:02.829Z,4.70
2022-11-30T08:44:02.701Z,4.70
2022-11-30T08:45:02.921Z,4.80
2022-11-30T08:46:04.228Z,4.80
2022-11-30T08:47:03.587Z,4.80
2022-11-30T08:48:03.515Z,4.80
2022-11-30T08:49:20.170Z,4.80
2022-11-30T08:50:03.295Z,4.80
2022-11-30T08:51:03.213Z,4.80
2022-11-30T08:52:18.373Z,4.80
2022-11-30T08:53:06.336Z,4.80
2022-11-30T08:54:02.954Z,4.80
2022-11-30T08:55:02.901Z,4.80
2022-11-30T08:56:02.695Z,4.80
2022-11-30T08:57:02.657Z,4.90
2022-11-30T08:58:03.552Z,4.90
2022-11-30T08:59:03.474Z,4.90
2022-11-30T09:00:03.439Z,4.90
2022-11-30T09:01:03.603Z,4.90
2022-11-30T09:02:03.433Z,4.90
2022-11-30T09:03:03.431Z,4.90
2022-11-30T09:04:03.380Z,4.90
2022-11-30T09:05:03.216Z,4.90
2022-11-30T09:06:03.095Z,4.90
2022-11-30T09:07:03.046Z,5.00
2022-11-30T09:08:03.012Z,5.00
2022-11-30T09:09:03.004Z,5.00
2022-11-30T09:10:02.873Z,5.00
2022-11-30T09:11:02.713Z,5.00
2022-11-30T09:12:02.618Z,5.00
2022-11-30T09:13:03.504Z,5.00
2022-11-30T09:14:03.655Z,5.00
2022-11-30T09:15:03.412Z,5.00
2022-11-30T09:16:03.576Z,5.00
2022-11-30T09:17:03.577Z,5.00
2022-11-30T09:18:03.524Z,5.10
2022-11-30T09:19:03.691Z,5.10
2022-11-30T09:20:03.493Z,5.10
2022-11-30T09:21:03.428Z,5.10
2022-11-30T09:22:03.351Z,5.10
2022-11-30T09:23:03.386Z,5.10
2022-11-30T09:24:03.298Z,5.10
2022-11-30T09:25:03.173Z,5.10
2022-11-30T09:26:03.104Z,5.10
2022-11-30T09:27:03.085Z,5.10
2022-11-30T09:28:04.956Z,5.20
2022-11-30T09:29:02.971Z,5.20
2022-11-30T09:30:02.731Z,5.20
2022-11-30T09:31:02.845Z,5.20
2022-11-30T09:32:02.738Z,5.20
2022-11-30T09:33:02.588Z,5.20
2022-11-30T09:34:03.547Z,5.20
2022-11-30T09:35:03.502Z,5.20
2022-11-30T09:36:03.521Z,5.20
2022-11-30T09:37:03.462Z,5.20
2022-11-30T09:38:03.413Z,5.20
2022-11-30T09:39:03.530Z,5.20
2022-11-30T09:40:03.456Z,5.20
2022-11-30T09:41:03.333Z,5.20
2022-11-30T09:42:03.257Z,5.20
2022-11-30T09:43:03.140Z,5.20
2022-11-30T09:44:03.157Z,5.20
2022-11-30T09:45:02.955Z,5.20
2022-11-30T09:46:02.888Z,5.20
2022-11-30T09:47:02.823Z,5.20
2022-11-30T09:48:02.702Z,5.20
2022-11-30T09:49:03.675Z,5.20
2022-11-30T09:50:03.460Z,5.20
2022-11-30T09:51:03.377Z,5.20
2022-11-30T09:52:03.354Z,5.20
2022-11-30T09:53:03.339Z,5.20
2022-11-30T09:54:03.192Z,5.20
2022-11-30T09:55:03.109Z,5.20
2022-11-30T09:56:03.014Z,5.20
2022-11-30T09:57:02.931Z,5.20
2022-11-30T09:58:02.877Z,5.30
2022-11-30T09:59:02.978Z,5.30
2022-11-30T10:00:02.846Z,5.30
2022-11-30T10:01:06.814Z,5.30
2022-11-30T10:02:03.599Z,5.30
2022-11-30T10:03:03.511Z,5.30
2022-11-30T10:04:03.451Z,5.30
2022-11-30T10:05:03.407Z,5.30
2022-11-30T10:06:03.482Z,5.30
2022-11-30T10:07:03.317Z,5.30
2022-11-30T10:08:03.371Z,5.30
2022-11-30T10:09:03.332Z,5.40
2022-11-30T10:10:30.114Z,5.30
2022-11-30T10:11:03.181Z,5.30
2022-11-30T10:12:03.126Z,5.40
2022-11-30T10:13:03.113Z,5.40
2022-11-30T10:14:02.979Z,5.40
2022-11-30T10:15:03.049Z,5.40
2022-11-30T10:16:02.826Z,5.40
2022-11-30T10:17:02.763Z,5.40
2022-11-30T10:18:02.661Z,5.40
2022-11-30T10:19:02.714Z,5.40
2022-11-30T10:20:03.670Z,5.40
2022-11-30T10:21:02.757Z,5.40
2022-11-30T10:22:02.660Z,5.40
2022-11-30T10:23:02.665Z,5.40
2022-11-30T10:24:02.618Z,5.40
2022-11-30T10:25:07.285Z,5.40
2022-11-30T10:26:03.520Z,5.40
2022-11-30T10:27:03.399Z,5.40
2022-11-30T10:28:17.948Z,5.40
2022-11-30T10:29:03.434Z,5.40
2022-11-30T10:30:03.549Z,5.50
2022-11-30T10:31:03.405Z,5.40
2022-11-30T10:32:03.214Z,5.50
2022-11-30T10:33:03.186Z,5.50
2022-11-30T10:34:03.069Z,5.50
2022-11-30T10:35:03.008Z,5.50
2022-11-30T10:36:02.803Z,5.50
2022-11-30T10:37:02.855Z,5.50
2022-11-30T10:38:02.701Z,5.50
2022-11-30T10:39:02.726Z,5.50
2022-11-30T10:40:02.654Z,5.50
2022-11-30T10:41:03.540Z,5.50
2022-11-30T10:42:03.388Z,5.50
2022-11-30T10:43:03.441Z,5.50
2022-11-30T10:44:03.374Z,5.50
2022-11-30T10:45:03.245Z,5.60
2022-11-30T10:46:03.154Z,5.60
2022-11-30T10:47:03.365Z,5.60
2022-11-30T10:48:03.272Z,5.60
2022-11-30T10:49:03.144Z,5.60
2022-11-30T10:50:03.269Z,5.60
2022-11-30T10:51:03.102Z,5.70
2022-11-30T10:52:02.934Z,5.70
2022-11-30T10:53:02.887Z,5.70
2022-11-30T10:54:02.775Z,5.70
2022-11-30T10:55:05.033Z,5.70
2022-11-30T10:56:02.629Z,5.70
2022-11-30T10:57:03.472Z,5.70
2022-11-30T10:58:03.433Z,5.70
2022-11-30T10:59:03.343Z,5.80
2022-11-30T11:00:03.269Z,5.80
2022-11-30T11:01:03.404Z,5.80
2022-11-30T11:02:03.151Z,5.80
2022-11-30T11:03:03.107Z,5.80
2022-11-30T11:04:03.072Z,5.80
2022-11-30T11:05:02.923Z,5.80
2022-11-30T11:06:02.844Z,5.80
2022-11-30T11:07:02.946Z,5.80
2022-11-30T11:08:06.700Z,5.80
2022-11-30T11:09:02.686Z,5.80
2022-11-30T11:10:02.812Z,5.80
2022-11-30T11:11:02.773Z,5.80
2022-11-30T11:12:02.621Z,5.80
2022-11-30T11:13:03.527Z,5.80
2022-11-30T11:14:03.404Z,5.90
2022-11-30T11:15:03.351Z,5.80
2022-11-30T11:16:03.400Z,5.90
2022-11-30T11:17:03.237Z,5.90
2022-11-30T11:18:03.237Z,5.90
2022-11-30T11:19:03.252Z,5.90
2022-11-30T11:20:03.135Z,5.90
2022-11-30T11:21:06.059Z,5.90
2022-11-30T11:22:02.966Z,5.90
2022-11-30T11:23:02.977Z,5.90
2022-11-30T11:24:02.996Z,5.90
2022-11-30T11:25:02.936Z,5.90
2022-11-30T11:26:02.860Z,5.90
2022-11-30T11:27:02.749Z,6.00
2022-11-30T11:28:02.619Z,6.00
2022-11-30T11:29:03.552Z,6.00
2022-11-30T11:30:03.486Z,6.00
2022-11-30T11:31:03.515Z,6.00
2022-11-30T11:32:03.307Z,6.00
2022-11-30T11:33:03.210Z,6.00
2022-11-30T11:34:03.047Z,6.10
2022-11-30T11:35:02.981Z,6.10
2022-11-30T11:36:03.022Z,6.10
2022-11-30T11:37:02.871Z,6.10
2022-11-30T11:38:02.822Z,6.10
2022-11-30T11:39:02.767Z,6.10
2022-11-30T11:40:02.655Z,6.10
2022-11-30T11:41:02.732Z,6.10
2022-11-30T11:42:02.670Z,6.10
2022-11-30T11:43:02.617Z,6.10
2022-11-30T11:44:03.497Z,6.10
2022-11-30T11:45:03.410Z,6.10
2022-11-30T11:46:03.373Z,6.10
2022-11-30T11:47:03.213Z,6.10
2022-11-30T11:48:03.100Z,6.10
2022-11-30T11:49:03.014Z,6.10
2022-11-30T11:50:02.981Z,6.10
2022-11-30T11:51:07.374Z,6.10
2022-11-30T11:52:02.818Z,6.10
2022-11-30T11:53:02.675Z,6.20
2022-11-30T11:54:02.669Z,6.20
2022-11-30T11:55:02.654Z,6.20
2022-11-30T11:56:02.677Z,6.20
2022-11-30T11:57:03.581Z,6.20
2022-11-30T11:58:03.435Z,6.20
2022-11-30T11:59:03.456Z,6.20
2022-11-30T12:00:03.345Z,6.20
2022-11-30T12:01:31.381Z,6.30
2022-11-30T12:02:03.353Z,6.30
2022-11-30T12:03:03.277Z,6.30
2022-11-30T12:04:03.258Z,6.30
2022-11-30T12:05:03.148Z,6.30
2022-11-30T12:06:03.206Z,6.30
2022-11-30T12:07:03.009Z,6.40
2022-11-30T12:08:02.875Z,6.40
2022-11-30T12:09:02.785Z,6.40
2022-11-30T12:10:02.747Z,6.40
2022-11-30T12:11:02.593Z,6.40
2022-11-30T12:12:02.619Z,6.40
2022-11-30T12:13:02.686Z,6.40
2022-11-30T12:14:03.572Z,6.40
2022-11-30T12:15:03.453Z,6.40
2022-11-30T12:16:03.441Z,6.40
2022-11-30T12:17:03.409Z,6.50
2022-11-30T12:18:03.237Z,6.50
2022-11-30T12:19:03.179Z,6.50
2022-11-30T12:20:03.066Z,6.50
2022-11-30T12:21:03.054Z,6.50
2022-11-30T12:22:02.956Z,6.50
2022-11-30T12:23:02.839Z,6.60
2022-11-30T12:24:02.784Z,6.60
2022-11-30T12:25:06.055Z,6.60
2022-11-30T12:26:02.722Z,6.60
2022-11-30T12:27:02.681Z,6.60
2022-11-30T12:28:02.637Z,6.60
2022-11-30T12:29:02.570Z,6.60
2022-11-30T12:30:03.528Z,6.60
2022-11-30T12:31:03.468Z,6.60
2022-11-30T12:32:03.457Z,6.70
2022-11-30T12:33:03.345Z,6.70
2022-11-30T12:34:03.342Z,6.70
2022-11-30T12:35:03.320Z,6.70
2022-11-30T12:36:03.315Z,6.70
2022-11-30T12:37:03.292Z,6.70
2022-11-30T12:38:03.161Z,6.70
2022-11-30T12:39:03.070Z,6.70
2022-11-30T12:40:02.980Z,6.70
2022-11-30T12:41:02.939Z,6.70
2022-11-30T12:42:02.830Z,6.70
2022-11-30T12:43:02.768Z,6.60
2022-11-30T12:44:02.757Z,6.70
2022-11-30T12:45:02.838Z,6.60
2022-11-30T12:46:02.785Z,6.60
2022-11-30T12:47:02.747Z,6.60
2022-11-30T12:48:03.567Z,6.60
2022-11-30T12:49:02.605Z,6.60
2022-11-30T12:50:03.556Z,6.60
2022-11-30T12:51:03.566Z,6.60
2022-11-30T12:52:03.573Z,6.60
2022-11-30T12:53:03.447Z,6.70
2022-11-30T12:54:03.295Z,6.70
2022-11-30T12:55:03.305Z,6.60
2022-11-30T12:56:03.274Z,6.60
2022-11-30T12:57:03.147Z,6.60
2022-11-30T12:58:03.167Z,6.60
2022-11-30T12:59:03.171Z,6.60
2022-11-30T13:00:03.249Z,6.60
2022-11-30T13:01:03.225Z,6.60
2022-11-30T13:02:03.115Z,6.60
2022-11-30T13:03:03.004Z,6.60
2022-11-30T13:04:03.010Z,6.60
2022-11-30T13:05:02.979Z,6.60
2022-11-30T13:06:03.072Z,6.60
2022-11-30T13:07:02.918Z,6.60
2022-11-30T13:08:02.940Z,6.60
2022-11-30T13:09:02.682Z,6.60
2022-11-30T13:10:02.673Z,6.60
2022-11-30T13:11:03.648Z,6.60
2022-11-30T13:12:03.518Z,6.60
2022-11-30T13:13:03.417Z,6.60
2022-11-30T13:14:03.419Z,6.60
2022-11-30T13:15:03.344Z,6.60
2022-11-30T13:16:03.407Z,6.60
2022-11-30T13:17:03.428Z,6.60
2022-11-30T13:18:03.241Z,6.60